Historyczne dane pomiarowe

Dodano dane terminowe – wersja testowa.

Dane z okresu 1951-2019

Wersja bazy: 1.34 [2019-03-16, lista zmian], aktualizacja planowana na 2019-04-15

Dane meteo z obszaru Polski uzyskane na podstawie danych udostępnionych przez Instytut Meteorologii i Gospodarki Wodnej – Państwowy Instytut Badawczy.

 

Wybierz Datę:    

       

TemperaturaWilgotnośćWiatrCiśnienieOpadyŚniegCzas trwania zjawisk
 Stacja t tx tn tng RH VA  wxwx mslp ppp RRR   cm mm wxwxwxwxwxwxwx
1996-06-13 11.2 16.9 6.5- 69.5- 6.7 1.0---- 0.0------------
1996-06-14 10.8 14.8 4.5- 76.3- 7.0 1.0---- 0.0------------
1996-06-15 13.9 21.3 4.2- 69.5- 6.7 1.0---- 0.0------------
1996-06-16 14.9 21.8 5.5- 74.0- 6.7 1.0---- 0.0------------
1996-06-17 15.2 21.6 4.9- 68.8- 6.3 1.0---- 0.0------------
1996-06-18 12.7 19.4 4.4- 82.0- 7.7 1.3---- 1.0------------
1996-06-19 9.1 13.1 4.7- 90.8- 8.0 2.0---- 1.5------------
1996-06-20 8.9 12.8 3.9- 77.0- 7.0 1.0---- 0.0------------
1996-06-21 10.6 16.4 3.5- 78.8- 7.0 1.0---- 0.0------------
1996-06-22 9.9 14.8 4.9- 80.0- 7.0 1.0---- 0.0------------
1996-06-23 9.3 15.4 3.5- 86.8- 7.3 1.0---- 0.0------------
1996-06-24 10.7 15.5 4.6- 89.3- 8.0 1.0---- 0.8------------
1996-06-25 13.2 19.6 5.8- 84.8- 7.0 1.0---- 0.0------------
1996-06-26 12.3 17.8 5.6- 82.5- 6.7 1.0---- 0.0------------
1996-06-27 10.9 16.4 4.5- 86.3- 7.7 1.3---- 1.2------------
1996-06-28 9.6 14.9 4.6- 81.0- 7.3 1.3---- 1.0------------
1996-06-29 9.7 16.3 3.9- 79.3- 7.0 1.3---- 0.6------------
1996-06-30 8.9 13.8 3.8- 92.8- 8.0 2.0---- 3.5------------
1996-07-01 11.2 16.4 5.6- 86.3- 7.3 1.3---- 0.6------------
1996-07-02 11.2 15.8 4.9- 80.0- 7.7 2.0---- 0.0------------
1996-07-03 11.6 16.8 4.2- 75.3- 6.7 1.0---- 0.0------------
1996-07-04 13.2 19.8 5.5- 69.3- 7.0 1.3---- 0.0------------
1996-07-05 13.4 21.4 4.4- 76.0- 6.7 1.0---- 0.6------------
1996-07-06 10.7 16.6 4.5- 89.0- 7.7 2.0---- 0.7------------
1996-07-07 9.0 14.3 3.4- 79.3- 7.3 1.3---- 0.5------------
1996-07-08 7.3 9.8 3.7- 94.8- 8.0 2.0---- 48.0------------
1996-07-09 7.9 11.2 3.9- 96.5- 8.0 2.7---- 63.0------------
1996-07-10 8.2 11.3 4.2- 89.3- 8.0 2.0---- 1.8------------
1996-07-11 9.5 15.6 4.1- 90.5- 7.3 1.3---- 1.0------------
1996-07-12 9.1 13.2 4.5- 90.8- 7.0 1.0---- 0.0------------
241.9 ms

 

Źródłem pochodzenia danych jest Instytut Meteorologii i Gospodarki Wodnej – Państwowy Instytut Badawczy. Dane Instytutu Meteorologii i Gospodarki Wodnej – Państwowego Instytutu Badawczego zostały przetworzone.

Dane źródłowe można odnaleźć na stronie https://dane.imgw.pl